Time;durP1;ratioP1;P1;durP2;ratioP2;P2;SDS_P1;SDS_P2;PMS_P1;PMS_P2;Temp;Humidity;BMP_temperature;BMP_pressure;BME280_temperature;BME280_humidity;BME280_pressure;Samples;Min_cycle;Max_cycle;Signal;HPM_P1;HPM_P2
2021/09/13 00:01:24;;;;;;;;;7.50;6.75;;;;;25.18;43.35;100876.44;6215797;22;45304;-80
2021/09/13 00:03:50;;;;;;;;;9.00;8.50;;;;;25.29;43.08;100898.19;6217940;22;45237;-80
2021/09/13 00:06:18;;;;;;;;;8.00;8.00;;;;;25.21;43.24;100881.66;6216549;22;45314;-80
2021/09/13 00:08:43;;;;;;;;;10.00;9.00;;;;;25.18;42.83;100890.66;6215840;22;45349;-80
2021/09/13 00:11:11;;;;;;;;;8.00;6.75;;;;;25.18;43.32;100889.81;6217869;22;45286;-80
2021/09/13 00:13:36;;;;;;;;;9.25;7.25;;;;;25.16;43.51;100895.22;6217904;22;45252;-80
2021/09/13 00:16:05;;;;;;;;;8.00;7.00;;;;;25.21;43.64;100903.91;6216463;22;45331;-80
2021/09/13 00:18:31;;;;;;;;;6.50;5.75;;;;;25.13;42.99;100879.38;6166878;22;47376;-80
2021/09/13 00:20:57;;;;;;;;;7.25;7.25;;;;;25.11;42.89;100881.25;6190854;22;45233;-80
2021/09/13 00:23:22;;;;;;;;;9.50;8.25;;;;;25.04;43.47;100870.00;6190467;22;45175;-80
2021/09/13 00:25:48;;;;;;;;;8.25;7.75;;;;;25.12;43.63;100880.31;6216497;22;45186;-80
2021/09/13 00:28:13;;;;;;;;;8.50;7.50;;;;;25.05;43.11;100858.38;6217543;22;45200;-80
2021/09/13 00:30:39;;;;;;;;;6.25;6.25;;;;;25.08;43.75;100858.22;6216358;22;45352;-80
2021/09/13 00:33:05;;;;;;;;;6.50;6.50;;;;;25.07;43.44;100853.81;6216643;22;45316;-81
2021/09/13 00:35:33;;;;;;;;;6.00;6.00;;;;;25.09;43.30;100856.41;6216125;22;45403;-80
2021/09/13 00:37:59;;;;;;;;;7.75;7.75;;;;;25.06;44.02;100849.41;6217403;22;45601;-80
2021/09/13 00:40:49;;;;;;;;;10.00;8.75;;;;;25.13;43.57;100849.97;6217641;22;45168;-80
2021/09/13 00:43:16;;;;;;;;;7.75;7.75;;;;;25.18;44.03;100860.41;6216206;22;45328;-80
2021/09/13 00:45:42;;;;;;;;;6.25;6.25;;;;;25.10;43.29;100842.09;6216524;22;45395;-81
2021/09/13 00:48:16;;;;;;;;;7.25;7.00;;;;;25.12;43.43;100848.25;6191026;22;45716;-81
2021/09/13 00:50:42;;;;;;;;;9.00;9.00;;;;;25.13;43.58;100852.66;6217865;22;45244;-79
2021/09/13 00:53:10;;;;;;;;;9.25;7.50;;;;;25.12;43.23;100852.72;6190969;22;45353;-80
2021/09/13 00:55:35;;;;;;;;;6.00;6.00;;;;;25.09;43.09;100843.03;6217764;22;45188;-81
2021/09/13 00:58:01;;;;;;;;;9.00;8.50;;;;;25.13;43.50;100849.97;6190627;22;48417;-80
2021/09/13 01:00:29;;;;;;;;;9.25;8.50;;;;;25.11;43.90;100843.84;6217461;22;45232;-81
2021/09/13 01:02:54;;;;;;;;;4.50;4.00;;;;;25.11;43.81;100840.28;6215649;22;45395;-80
2021/09/13 01:05:20;;;;;;;;;7.00;5.00;;;;;25.11;43.35;100849.19;6191048;22;45237;-80
2021/09/13 01:07:45;;;;;;;;;7.75;7.25;;;;;25.08;43.47;100835.97;6190715;22;45982;-81
2021/09/13 01:10:13;;;;;;;;;7.25;6.75;;;;;25.22;43.43;100857.53;6190861;22;45352;-80
2021/09/13 01:12:38;;;;;;;;;5.25;5.00;;;;;25.07;43.97;100835.13;6216213;22;45366;-80
2021/09/13 01:15:04;;;;;;;;;7.25;6.25;;;;;25.18;43.18;100855.09;6216024;22;45387;-81
2021/09/13 01:17:30;;;;;;;;;7.50;7.00;;;;;25.04;43.71;100840.63;6215401;22;46863;-80
2021/09/13 01:19:58;;;;;;;;;6.75;5.50;;;;;25.06;43.70;100836.06;6190452;22;45179;-81
2021/09/13 01:22:31;;;;;;;;;7.00;6.00;;;;;25.05;43.35;100841.47;6190686;22;45187;-80
2021/09/13 01:24:56;;;;;;;;;9.50;8.50;;;;;25.04;44.04;100843.28;6216023;22;45207;-80
2021/09/13 01:27:24;;;;;;;;;7.25;7.00;;;;;25.15;44.51;100856.09;6216096;22;45808;-80
2021/09/13 01:29:50;;;;;;;;;10.25;9.00;;;;;25.21;44.16;100862.97;6215279;22;45318;-80
2021/09/13 01:32:15;;;;;;;;;8.50;7.25;;;;;25.16;45.51;100848.97;6217955;22;45232;-79
2021/09/13 01:34:41;;;;;;;;;8.25;8.25;;;;;25.25;45.07;100848.50;6190246;22;45275;-79
2021/09/13 01:37:06;;;;;;;;;6.25;5.25;;;;;25.29;45.33;100840.25;6216354;22;46342;-80
2021/09/13 01:39:39;;;;;;;;;8.00;8.00;;;;;25.43;44.88;100846.69;6217040;22;45244;-80
2021/09/13 01:42:13;;;;;;;;;8.75;7.00;;;;;25.39;44.62;100832.66;6218623;22;45351;-78
2021/09/13 01:44:39;;;;;;;;;7.75;7.75;;;;;25.48;43.78;100842.00;6216155;22;46098;-79
2021/09/13 01:47:04;;;;;;;;;9.75;7.50;;;;;25.55;43.40;100846.09;6217579;22;46390;-80
2021/09/13 01:49:30;;;;;;;;;9.75;9.25;;;;;25.56;43.51;100840.66;6217590;22;45382;-79
2021/09/13 01:52:05;;;;;;;;;;;;;;;;;;;;;
2021/09/13 01:54:31;;;;;;;;;8.00;8.00;;;;;25.59;42.78;100847.66;6214638;22;71958;-78
2021/09/13 01:56:57;;;;;;;;;6.50;6.00;;;;;25.59;42.73;100848.50;6215940;22;45647;-79
2021/09/13 01:59:22;;;;;;;;;7.75;7.50;;;;;25.60;42.45;100844.03;6215852;22;45293;-79
2021/09/13 02:01:50;;;;;;;;;8.00;8.00;;;;;25.56;42.23;100837.13;6216138;22;45413;-79
2021/09/13 02:04:15;;;;;;;;;6.75;6.75;;;;;25.54;41.75;100839.00;6217406;22;45166;-79
2021/09/13 02:06:41;;;;;;;;;10.75;8.00;;;;;25.55;41.31;100833.59;6217177;22;45453;-80
2021/09/13 02:09:08;;;;;;;;;8.25;6.50;;;;;25.58;41.41;100843.25;6190597;22;45248;-79
2021/09/13 02:11:34;;;;;;;;;8.00;8.00;;;;;25.60;41.24;100846.72;6215869;22;45253;-80
2021/09/13 02:14:15;;;;;;;;;;;;;;;;;;;;;
2021/09/13 02:16:43;;;;;;;;;7.50;7.25;;;;;25.62;41.24;100850.16;6214830;22;74385;-80
2021/09/13 02:19:09;;;;;;;;;8.25;7.00;;;;;25.59;41.05;100843.16;6215100;22;45400;-80
2021/09/13 02:21:40;;;;;;;;;6.25;6.00;;;;;25.55;41.50;100838.94;6217385;22;45367;-78
2021/09/13 02:24:07;;;;;;;;;6.00;6.00;;;;;25.52;41.39;100825.72;6215449;22;45471;-79
2021/09/13 02:26:33;;;;;;;;;9.25;8.00;;;;;25.55;41.38;100838.94;6215505;22;46254;-80
2021/09/13 02:28:58;;;;;;;;;7.50;7.00;;;;;25.57;41.08;100838.84;6215992;22;45258;-79
2021/09/13 02:31:26;;;;;;;;;6.75;6.75;;;;;25.50;40.75;100827.59;6217667;22;45468;-79
2021/09/13 02:33:54;;;;;;;;;6.00;6.00;;;;;25.57;40.86;100847.75;6215849;22;45520;-79
2021/09/13 02:36:19;;;;;;;;;8.00;8.00;;;;;25.58;41.18;100844.13;6217009;22;45197;-79
2021/09/13 02:38:45;;;;;;;;;7.50;7.00;;;;;25.58;40.62;100844.13;6189826;22;45196;-79
2021/09/13 02:41:19;;;;;;;;;7.25;6.75;;;;;25.59;40.75;100850.31;6189571;22;45432;-78
2021/09/13 02:43:44;;;;;;;;;6.50;6.50;;;;;25.54;40.50;100847.91;6214831;22;45206;-79
2021/09/13 02:46:15;;;;;;;;;8.50;6.00;;;;;25.51;40.66;100839.16;6216939;22;45200;-78
2021/09/13 02:48:40;;;;;;;;;5.75;5.75;;;;;25.61;40.82;100856.44;6215671;22;45206;-79
2021/09/13 02:51:13;;;;;;;;;8.00;6.25;;;;;25.59;40.13;100847.66;6190170;22;45261;-79
2021/09/13 02:53:39;;;;;;;;;7.50;6.00;;;;;25.46;40.54;100831.41;6217155;22;45161;-79
2021/09/13 02:56:12;;;;;;;;;9.50;7.00;;;;;25.44;40.08;100827.91;6216958;22;45906;-79
2021/09/13 02:58:42;;;;;;;;;8.00;7.50;;;;;25.44;40.30;100822.56;6214795;22;45253;-80
2021/09/13 03:01:08;;;;;;;;;6.00;6.00;;;;;25.46;40.05;100828.72;6215351;22;45387;-79
2021/09/13 03:03:33;;;;;;;;;6.75;6.75;;;;;25.35;40.35;100818.56;6213732;22;45492;-79
2021/09/13 03:06:06;;;;;;;;;4.50;4.00;;;;;25.49;40.28;100843.72;6215206;22;45490;-79
2021/09/13 03:08:32;;;;;;;;;7.00;7.00;;;;;25.36;40.08;100814.94;6216663;22;45339;-79
2021/09/13 03:11:02;;;;;;;;;6.75;6.75;;;;;25.40;40.95;100823.69;6217070;22;45341;-79
2021/09/13 03:13:31;;;;;;;;;6.25;6.25;;;;;25.39;40.20;100824.63;6215198;22;45183;-79
2021/09/13 03:16:01;;;;;;;;;7.00;7.00;;;;;25.42;40.35;100832.47;6216826;22;45297;-78
2021/09/13 03:18:27;;;;;;;;;6.25;6.25;;;;;25.28;40.06;100814.50;6190423;22;45194;-78
2021/09/13 03:20:52;;;;;;;;;9.50;7.25;;;;;25.31;39.79;100829.50;6215619;22;45205;-79
2021/09/13 03:23:20;;;;;;;;;7.50;6.00;;;;;25.19;40.18;100808.72;6189533;22;45261;-79
2021/09/13 03:25:47;;;;;;;;;9.50;7.25;;;;;25.13;40.72;100819.75;6217651;22;46077;-80
2021/09/13 03:28:23;;;;;;;;;;;;;;;;;;;;;
2021/09/13 03:30:51;;;;;;;;;7.25;7.00;;;;;25.09;40.66;100830.56;6217401;22;68854;-79
2021/09/13 03:33:29;;;;;;;;;;;;;;;;;;;;;
2021/09/13 03:36:02;;;;;;;;;9.00;7.25;;;;;24.92;40.78;100802.91;6215697;22;74604;-78
2021/09/13 03:38:38;;;;;;;;;7.50;7.00;;;;;24.90;40.74;100802.13;6191269;22;45184;-79
2021/09/13 03:41:03;;;;;;;;;6.50;5.75;;;;;24.96;40.91;100824.06;6217251;22;45161;-79
2021/09/13 03:43:37;;;;;;;;;7.00;7.00;;;;;24.91;41.25;100823.41;6216073;22;45197;-79
2021/09/13 03:46:05;;;;;;;;;7.00;6.75;;;;;24.91;41.42;100819.88;6216416;22;45310;-79
2021/09/13 03:48:30;;;;;;;;;10.00;8.00;;;;;24.88;41.58;100822.72;6218393;22;45299;-79
2021/09/13 03:50:56;;;;;;;;;10.00;7.75;;;;;24.81;41.34;100812.31;6218414;22;45434;-79
2021/09/13 03:53:21;;;;;;;;;9.25;8.50;;;;;24.71;41.31;100799.50;6218100;22;45265;-79
2021/09/13 03:55:47;;;;;;;;;9.00;8.00;;;;;24.70;41.51;100801.31;6216129;22;45420;-80
2021/09/13 03:58:22;;;;;;;;;;;;;;;;;;;;;
2021/09/13 04:00:48;;;;;;;;;8.50;7.25;;;;;24.66;42.01;100797.03;6215296;22;68992;-78
2021/09/13 04:03:18;;;;;;;;;7.75;7.75;;;;;24.64;41.60;100800.75;6190637;22;45279;-79
2021/09/13 04:05:46;;;;;;;;;8.00;8.00;;;;;24.63;42.19;100799.88;6215332;22;45132;-79
2021/09/13 04:08:20;;;;;;;;;8.00;7.25;;;;;24.67;41.77;100805.91;6217658;22;45339;-79
2021/09/13 04:13:14;;;;;;;;;8.00;8.00;;;;;24.63;42.32;100799.88;6216472;22;45363;-79
2021/09/13 04:15:39;;;;;;;;;8.00;8.00;;;;;24.65;41.97;100802.47;6216059;22;46322;-78
2021/09/13 04:18:05;;;;;;;;;10.75;9.25;;;;;24.64;41.93;100798.94;6216582;22;45283;-78
2021/09/13 04:20:31;;;;;;;;;10.00;9.00;;;;;24.59;42.40;100798.31;6218105;22;45201;-79
2021/09/13 04:23:01;;;;;;;;;8.00;8.00;;;;;24.69;41.93;100814.75;6216437;22;45190;-79
2021/09/13 04:25:26;;;;;;;;;7.50;7.50;;;;;24.64;42.73;100808.75;6218214;22;45455;-79
2021/09/13 04:27:52;;;;;;;;;9.00;7.00;;;;;24.62;42.46;100800.81;6215633;22;45359;-79
2021/09/13 04:30:27;;;;;;;;;;;;;;;;;;;;;
2021/09/13 04:33:16;;;;;;;;;6.50;6.50;;;;;24.52;42.68;100795.06;6215395;22;72960;-79
2021/09/13 04:35:48;;;;;;;;;6.75;6.75;;;;;24.43;42.81;100783.97;6215252;22;45551;-79
2021/09/13 04:38:17;;;;;;;;;8.50;8.00;;;;;24.43;42.74;100789.31;6215428;22;45262;-78
2021/09/13 04:40:42;;;;;;;;;8.75;8.75;;;;;24.42;42.54;100784.91;6215108;22;45230;-79
2021/09/13 04:43:10;;;;;;;;;8.00;8.00;;;;;24.55;42.79;100810.06;6190774;22;45508;-78
2021/09/13 04:45:58;;;;;;;;;6.00;6.00;;;;;24.53;43.22;100815.47;6217771;22;46465;-79
2021/09/13 04:48:24;;;;;;;;;8.00;8.00;;;;;24.48;43.08;100808.59;6190948;22;45281;-78
2021/09/13 04:50:52;;;;;;;;;9.00;8.00;;;;;24.39;43.24;100785.03;6190935;22;45345;-79
2021/09/13 04:53:26;;;;;;;;;14.25;11.25;;;;;24.46;43.40;100813.16;6215614;22;45728;-78
2021/09/13 04:55:54;;;;;;;;;10.25;9.75;;;;;24.51;43.21;100803.16;6216149;22;45407;-78
2021/09/13 04:58:19;;;;;;;;;12.50;11.25;;;;;24.52;43.62;100802.19;6190974;22;45172;-79
2021/09/13 05:00:47;;;;;;;;;11.25;10.25;;;;;24.51;43.83;100789.81;6193511;22;45379;-83
2021/09/13 05:03:12;;;;;;;;;11.75;10.25;;;;;24.67;45.37;100792.56;6190660;22;45294;-80
2021/09/13 05:05:38;;;;;;;;;9.75;9.25;;;;;24.79;45.08;100794.66;6218700;22;45379;-80
2021/09/13 05:08:03;;;;;;;;;12.00;9.25;;;;;24.94;45.46;100801.06;6215624;22;45305;-77
2021/09/13 05:10:29;;;;;;;;;10.25;10.25;;;;;25.04;45.03;100799.69;6216318;22;45375;-76
2021/09/13 05:12:54;;;;;;;;;25.75;20.50;;;;;25.18;45.72;100801.66;6216382;22;46292;-86
2021/09/13 05:15:20;;;;;;;;;44.75;33.75;;;;;25.22;45.13;100788.09;6190674;22;45378;-81
2021/09/13 05:17:47;;;;;;;;;19.25;18.25;;;;;25.29;44.73;100778.81;6190974;22;45223;-82
2021/09/13 05:20:13;;;;;;;;;17.00;15.75;;;;;25.35;44.38;100783.81;6191300;22;45178;-76
2021/09/13 05:22:39;;;;;;;;;13.50;13.00;;;;;25.32;44.06;100777.78;6216952;22;45447;-76
2021/09/13 05:25:05;;;;;;;;;12.50;11.75;;;;;25.46;43.92;100796.66;6190542;22;46955;-76
2021/09/13 05:27:30;;;;;;;;;12.25;10.25;;;;;25.43;44.14;100796.78;6217140;22;45283;-81
2021/09/13 05:29:56;;;;;;;;;17.00;14.50;;;;;25.48;44.50;100797.44;6215458;22;45409;-79
2021/09/13 05:32:21;;;;;;;;;15.00;14.00;;;;;25.48;44.09;100791.22;6191058;22;45332;-85
2021/09/13 05:35:01;;;;;;;;;10.25;10.25;;;;;25.41;43.78;100779.13;6191614;22;45433;-87
2021/09/13 05:37:29;;;;;;;;;9.50;9.50;;;;;25.39;43.84;100786.34;6195468;22;45134;-84
2021/09/13 05:39:55;;;;;;;;;11.50;11.00;;;;;25.30;43.51;100780.53;6216395;22;45459;-86
2021/09/13 05:43:05;;;;;;;;;12.00;11.25;;;;;25.41;43.58;100792.47;6190493;22;45369;-88
2021/09/13 05:45:56;;;;;;;;;12.25;11.75;;;;;25.38;43.44;100792.66;6217612;22;46111;-84
2021/09/13 05:48:29;;;;;;;;;12.50;12.00;;;;;25.33;44.40;100790.19;6214933;22;45355;-84
2021/09/13 05:51:05;;;;;;;;;14.00;13.00;;;;;25.20;44.26;100773.94;6193677;22;45203;-82
2021/09/13 05:54:08;;;;;;;;;14.50;12.00;;;;;25.26;44.25;100791.44;6191912;22;45441;-80
2021/09/13 05:56:49;;;;;;;;;16.75;11.75;;;;;25.17;44.50;100790.09;6215339;22;48021;-81
2021/09/13 05:59:22;;;;;;;;;12.50;11.25;;;;;25.07;44.27;100783.50;6218490;22;45267;-81
2021/09/13 06:01:48;;;;;;;;;11.50;10.75;;;;;24.96;44.50;100775.16;6217220;22;45358;-79
2021/09/13 06:04:13;;;;;;;;;13.50;12.00;;;;;24.94;45.13;100779.72;6190580;22;45297;-83
2021/09/13 06:06:41;;;;;;;;;13.50;10.25;;;;;24.98;45.65;100784.81;6190757;22;45305;-85
2021/09/13 06:09:19;;;;;;;;;17.00;15.25;;;;;25.15;45.71;100804.50;6215431;22;45285;-83
2021/09/13 06:11:44;;;;;;;;;15.50;11.00;;;;;25.14;45.09;100790.28;6176699;22;45236;-83
2021/09/13 06:14:12;;;;;;;;;11.25;10.00;;;;;25.24;44.71;100796.88;6194309;22;45345;-81
2021/09/13 06:16:38;;;;;;;;;10.75;10.75;;;;;25.21;44.06;100782.81;6190304;22;47168;-81
2021/09/13 06:19:03;;;;;;;;;12.25;9.50;;;;;25.27;43.69;100791.38;6159006;22;45588;-79
2021/09/13 06:21:31;;;;;;;;;12.00;10.50;;;;;25.30;43.60;100785.88;6186171;22;45338;-78
2021/09/13 06:23:57;;;;;;;;;11.00;10.75;;;;;25.29;42.93;100781.50;6217224;22;45177;-79
2021/09/13 06:26:22;;;;;;;;;12.50;11.25;;;;;25.38;42.68;100793.50;6217137;22;45298;-79
2021/09/13 06:28:48;;;;;;;;;11.00;9.00;;;;;25.47;42.13;100797.53;6214264;22;45237;-80
2021/09/13 06:31:16;;;;;;;;;12.50;10.75;;;;;25.47;42.68;100787.69;6182204;22;50820;-80
2021/09/13 06:33:42;;;;;;;;;10.75;9.00;;;;;25.53;42.08;100798.03;6215144;22;45462;-78
2021/09/13 06:36:08;;;;;;;;;10.50;9.50;;;;;25.55;42.07;100790.84;6212816;22;47142;-80
2021/09/13 06:38:33;;;;;;;;;10.00;8.50;;;;;25.61;41.79;100794.97;6188797;22;45341;-80
2021/09/13 06:41:02;;;;;;;;;11.75;10.50;;;;;25.60;41.49;100794.13;6215898;22;45360;-82
2021/09/13 06:43:28;;;;;;;;;11.00;9.75;;;;;25.67;41.47;100808.03;6190742;22;45386;-83
2021/09/13 06:46:10;;;;;;;;;10.00;9.00;;;;;25.65;41.17;100799.22;6217613;22;45169;-83
2021/09/13 06:48:43;;;;;;;;;13.50;11.00;;;;;25.75;40.95;100818.34;6216577;22;45285;-87
2021/09/13 06:51:09;;;;;;;;;13.25;10.75;;;;;25.67;41.01;100801.81;6194175;22;45331;-86
2021/09/13 06:54:26;;;;;;;;;10.50;10.00;;;;;25.83;40.76;100825.03;6203485;22;45576;-85
2021/09/13 06:57:36;;;;;;;;;12.00;10.00;;;;;25.75;40.68;100807.66;6241727;22;46753;-89
2021/09/13 07:03:08;;;;;;;;;13.25;10.75;;;;;25.77;41.12;100811.97;6270402;22;45248;-94
2021/09/13 08:14:45;;;;;;;;;;;;;;;;;;;;;
2021/09/13 08:17:59;;;;;;;;;;;;;;;;;;;;;
2021/09/13 08:28:17;;;;;;;;;13.00;11.75;;;;;25.83;41.58;100768.00;5780106;24;45452;-93
2021/09/13 08:30:56;;;;;;;;;;;;;;;;;;;;;
2021/09/13 08:34:12;;;;;;;;;;;;;;;;;;;;;
2021/09/13 08:36:47;;;;;;;;;10.50;10.50;;;;;25.91;41.52;100750.63;6225875;22;73209;-92
2021/09/13 08:39:16;;;;;;;;;10.00;8.75;;;;;25.94;41.28;100760.25;6170035;22;45374;-94
2021/09/13 08:41:58;;;;;;;;;16.00;11.50;;;;;25.93;41.14;100753.19;6170749;22;45349;-87
2021/09/13 08:44:35;;;;;;;;;12.25;12.00;;;;;25.90;40.95;100748.88;6194088;22;46581;-88
2021/09/13 08:47:14;;;;;;;;;13.25;12.75;;;;;25.87;40.81;100757.06;6194844;22;45333;-88
2021/09/13 08:49:55;;;;;;;;;10.25;10.25;;;;;25.94;41.26;100770.97;6172072;22;45341;-90
2021/09/13 08:52:20;;;;;;;;;11.00;9.75;;;;;25.90;41.61;100762.25;6194380;22;45238;-76
2021/09/13 08:54:46;;;;;;;;;10.75;10.00;;;;;25.97;41.71;100781.47;6164968;22;47765;-79
2021/09/13 08:57:14;;;;;;;;;10.75;10.75;;;;;25.95;41.68;100774.50;6190318;22;45941;-80
2021/09/13 08:59:40;;;;;;;;;12.75;10.25;;;;;26.04;42.03;100790.03;6161573;22;45311;-81
2021/09/13 09:02:06;;;;;;;;;8.25;7.00;;;;;26.06;41.46;100796.16;6200155;22;45450;-80
2021/09/13 09:04:35;;;;;;;;;8.25;7.25;;;;;26.03;41.53;100793.66;6226469;22;46268;-80
2021/09/13 09:07:07;;;;;;;;;11.00;9.00;;;;;26.10;41.74;100801.28;6225719;22;45293;-80
2021/09/13 09:09:35;;;;;;;;;11.75;9.25;;;;;25.99;41.36;100779.63;6250998;22;45434;-80
2021/09/13 09:12:07;;;;;;;;;10.00;10.00;;;;;26.04;41.12;100790.03;6226396;22;45189;-79
2021/09/13 09:14:40;;;;;;;;;11.00;9.00;;;;;26.15;40.94;100804.59;6278850;22;45411;-79
2021/09/13 09:17:25;;;;;;;;;10.75;10.00;;;;;26.06;41.28;100783.69;6225345;22;45352;-81
2021/09/13 09:21:30;;;;;;;;;9.75;9.00;;;;;26.03;41.20;100783.84;6245890;22;45421;-80
2021/09/13 09:23:30;;;;;;;;;10.50;9.00;;;;;26.03;41.21;100786.50;6140042;22;46607;-79
2021/09/13 09:26:10;;;;;;;;;11.75;10.00;;;;;26.05;40.63;100779.25;6248866;22;45990;-82
2021/09/13 09:28:35;;;;;;;;;10.75;9.25;;;;;26.05;41.47;100773.91;6200184;22;45421;-79
2021/09/13 09:31:01;;;;;;;;;10.00;9.25;;;;;26.04;41.39;100777.53;6251815;22;45354;-83
2021/09/13 09:33:26;;;;;;;;;13.00;10.50;;;;;26.15;41.00;100790.31;6251021;22;50892;-80
2021/09/13 09:35:54;;;;;;;;;10.00;9.50;;;;;26.11;40.92;100780.75;6278889;22;45318;-85
2021/09/13 09:38:26;;;;;;;;;10.00;8.50;;;;;26.15;41.00;100790.31;6225313;22;45379;-81
2021/09/13 09:41:02;;;;;;;;;11.75;11.50;;;;;26.14;41.21;100783.25;6279245;22;45358;-81
2021/09/13 09:43:29;;;;;;;;;9.25;7.50;;;;;26.13;41.17;100776.16;6278578;22;45501;-81
2021/09/13 09:45:54;;;;;;;;;12.25;10.00;;;;;26.16;41.06;100784.06;6251282;22;45323;-79
2021/09/13 09:48:20;;;;;;;;;11.25;10.00;;;;;26.17;41.26;100780.41;6251136;22;45204;-79
2021/09/13 09:50:46;;;;;;;;;8.75;8.75;;;;;26.23;41.52;100776.53;6225637;22;45259;-78
2021/09/13 09:53:15;;;;;;;;;11.00;8.25;;;;;26.27;42.10;100783.44;6251465;22;45204;-78
2021/09/13 09:55:41;;;;;;;;;7.75;7.75;;;;;26.22;41.63;100756.94;6220751;22;48099;-80
2021/09/13 09:58:10;;;;;;;;;7.25;7.00;;;;;26.29;41.22;100761.00;6249519;22;45419;-79
2021/09/13 10:00:37;;;;;;;;;8.75;8.50;;;;;26.24;40.45;100756.84;6223512;22;45292;-78
2021/09/13 10:03:27;;;;;;;;;9.00;9.00;;;;;26.29;40.93;100758.31;6223715;22;45328;-83
2021/09/13 10:05:52;;;;;;;;;9.00;9.00;;;;;26.19;41.62;100736.56;6258849;22;45464;-85
2021/09/13 10:08:18;;;;;;;;;9.50;9.50;;;;;26.26;42.65;100737.09;6255563;22;45308;-82
2021/09/13 10:10:43;;;;;;;;;6.50;6.50;;;;;26.33;43.16;100751.00;6254199;22;45260;-81
2021/09/13 10:13:09;;;;;;;;;9.50;9.25;;;;;26.33;42.48;100735.81;6255234;22;45442;-88
2021/09/13 10:15:34;;;;;;;;;8.00;8.00;;;;;26.43;42.62;100738.88;6230148;22;45955;-84
2021/09/13 10:18:00;;;;;;;;;12.25;8.75;;;;;26.44;41.32;100730.75;6228465;22;45273;-87
2021/09/13 10:20:25;;;;;;;;;11.00;11.00;;;;;26.47;41.99;100735.91;6252444;22;45645;-80
2021/09/13 10:22:55;;;;;;;;;8.25;7.50;;;;;26.54;41.01;100730.22;6278489;22;45441;-84
2021/09/13 10:25:20;;;;;;;;;9.50;9.00;;;;;26.53;41.16;100723.13;6225958;22;47327;-79
2021/09/13 10:27:47;;;;;;;;;9.75;8.00;;;;;26.55;41.26;100724.75;6226163;22;45268;-77
2021/09/13 10:30:23;;;;;;;;;8.00;8.00;;;;;26.52;40.75;100721.41;6222547;22;45474;-85
2021/09/13 10:32:50;;;;;;;;;7.00;7.00;;;;;26.51;40.25;100725.91;6225936;22;45379;-86
2021/09/13 10:35:19;;;;;;;;;10.50;9.25;;;;;26.49;40.34;100720.63;6223178;22;47987;-85
2021/09/13 10:37:50;;;;;;;;;7.00;7.00;;;;;26.49;40.47;100719.75;6226502;22;45361;-86
2021/09/13 10:40:15;;;;;;;;;8.00;8.00;;;;;26.48;40.65;100724.25;6225805;22;45324;-87
2021/09/13 10:42:43;;;;;;;;;7.00;6.00;;;;;26.47;40.57;100713.63;6255615;22;45662;-87
2021/09/13 10:45:11;;;;;;;;;7.00;7.00;;;;;26.41;40.40;100712.19;6251164;22;47514;-88
2021/09/13 10:47:38;;;;;;;;;5.75;5.75;;;;;26.45;40.47;100726.25;6251540;22;45404;-86
2021/09/13 10:50:16;;;;;;;;;6.00;6.00;;;;;26.43;40.61;100714.78;6225811;22;45293;-85
2021/09/13 10:53:08;;;;;;;;;5.50;5.50;;;;;26.43;40.99;100712.09;6280450;22;45493;-89
2021/09/13 10:55:38;;;;;;;;;6.75;6.25;;;;;26.41;41.47;100696.13;6214833;22;48020;-88
2021/09/13 10:58:05;;;;;;;;;9.50;7.50;;;;;26.42;40.95;100697.84;6224786;22;45270;-88
2021/09/13 11:00:40;;;;;;;;;7.00;6.25;;;;;26.46;40.39;100709.25;6226463;22;45448;-90
2021/09/13 11:06:17;;;;;;;;;7.50;7.00;;;;;26.38;40.29;100700.78;6280306;22;46030;-90
2021/09/13 11:08:47;;;;;;;;;6.25;6.25;;;;;26.31;40.32;100683.31;6278231;22;45166;-86
2021/09/13 11:11:13;;;;;;;;;8.25;8.00;;;;;26.40;40.66;100693.53;6225192;22;45312;-86
2021/09/13 11:13:39;;;;;;;;;8.00;7.25;;;;;26.37;40.51;100689.19;6251045;22;45265;-92
2021/09/13 11:16:04;;;;;;;;;7.75;7.75;;;;;26.41;41.56;100680.06;6230829;22;47263;-93
2021/09/13 11:18:31;;;;;;;;;8.00;8.00;;;;;26.33;41.27;100670.72;6208797;22;45207;-85
2021/09/13 11:21:26;;;;;;;;;9.75;7.75;;;;;26.46;41.92;100685.16;6238325;22;44713;-84
2021/09/13 11:23:52;;;;;;;;;9.25;8.50;;;;;26.46;41.68;100683.34;6258630;22;45178;-91
2021/09/13 11:26:19;;;;;;;;;6.75;6.50;;;;;26.48;41.65;100680.56;6250487;22;45305;-87
2021/09/13 11:29:01;;;;;;;;;7.25;7.25;;;;;26.43;40.82;100663.94;6230706;22;45424;-86
2021/09/13 11:31:40;;;;;;;;;7.00;6.50;;;;;26.52;41.10;100673.22;6228591;22;45231;-81
2021/09/13 11:34:19;;;;;;;;;5.50;5.50;;;;;26.52;41.36;100670.56;6227671;22;45345;-88
2021/09/13 11:37:03;;;;;;;;;8.50;7.00;;;;;26.56;41.81;100667.59;6223749;22;45526;-88
2021/09/13 11:39:43;;;;;;;;;8.00;7.50;;;;;26.56;41.95;100672.09;6276331;22;44706;-86
2021/09/13 11:42:13;;;;;;;;;8.00;7.50;;;;;26.58;42.45;100681.75;6227302;22;45307;-88
2021/09/13 11:44:45;;;;;;;;;8.50;8.50;;;;;26.60;42.22;100679.00;6224797;22;45488;-87
2021/09/13 11:47:13;;;;;;;;;9.00;8.25;;;;;26.57;42.56;100673.81;6226351;22;48365;-87
2021/09/13 11:49:40;;;;;;;;;8.25;7.25;;;;;26.56;41.41;100656.88;6201195;22;45297;-88
2021/09/13 11:52:11;;;;;;;;;10.25;7.00;;;;;26.55;41.77;100667.69;6227002;22;45200;-87
2021/09/13 11:54:44;;;;;;;;;7.00;7.00;;;;;26.54;41.88;100650.78;6227516;22;45371;-87
2021/09/13 11:57:28;;;;;;;;;9.25;8.00;;;;;26.64;42.06;100661.78;6226451;22;48232;-87
2021/09/13 11:59:57;;;;;;;;;6.25;6.25;;;;;26.60;41.65;100654.91;6251850;22;45343;-87
2021/09/13 12:02:23;;;;;;;;;9.00;6.50;;;;;26.60;41.65;100652.25;6226716;22;45247;-85
2021/09/13 12:04:50;;;;;;;;;10.50;8.75;;;;;26.64;41.42;100648.41;6228829;22;45447;-83
2021/09/13 12:07:16;;;;;;;;;8.00;8.00;;;;;26.64;42.37;100649.28;6255293;22;45975;-84
2021/09/13 12:09:42;;;;;;;;;9.50;9.50;;;;;26.64;42.25;100649.28;6228747;22;45179;-83
2021/09/13 12:12:11;;;;;;;;;7.25;7.25;;;;;26.65;42.13;100650.13;6254948;22;45316;-86
2021/09/13 12:14:38;;;;;;;;;8.50;7.00;;;;;26.66;42.44;100643.81;6240709;22;45307;-89
2021/09/13 12:17:11;;;;;;;;;7.50;7.50;;;;;26.67;42.16;100643.75;6233038;22;47811;-88
2021/09/13 12:19:50;;;;;;;;;9.50;8.00;;;;;26.61;42.34;100644.09;6233906;22;45727;-91
2021/09/13 12:22:16;;;;;;;;;10.25;8.00;;;;;26.63;41.66;100644.00;6230990;22;45301;-87
2021/09/13 12:24:44;;;;;;;;;7.00;7.00;;;;;26.62;42.38;100642.28;6204796;22;45369;-88
2021/09/13 12:27:15;;;;;;;;;6.25;6.25;;;;;26.65;41.83;100642.97;6203206;22;46999;-89
2021/09/13 12:29:55;;;;;;;;;8.75;7.00;;;;;26.66;41.68;100644.69;6255305;22;45238;-92
2021/09/13 12:32:28;;;;;;;;;8.25;8.25;;;;;26.55;41.91;100623.03;6202397;22;45358;-84
2021/09/13 12:35:14;;;;;;;;;8.25;8.00;;;;;26.65;41.95;100637.59;6226364;22;45305;-82
2021/09/13 12:37:40;;;;;;;;;7.00;7.00;;;;;26.61;42.25;100619.16;6248935;22;47266;-89
2021/09/13 12:40:13;;;;;;;;;10.25;7.50;;;;;26.68;42.32;100617.84;6202649;22;45598;-83
2021/09/13 12:42:51;;;;;;;;;6.25;5.00;;;;;26.64;42.52;100603.75;6226969;22;45199;-85
2021/09/13 12:45:23;;;;;;;;;8.75;7.00;;;;;26.70;42.83;100605.22;6222952;22;45675;-81
2021/09/13 12:48:00;;;;;;;;;7.75;7.75;;;;;26.73;42.85;100610.38;6233289;22;47331;-85
2021/09/13 12:50:28;;;;;;;;;9.00;9.00;;;;;26.76;42.26;100611.06;6225324;22;45281;-84
2021/09/13 12:52:54;;;;;;;;;9.25;8.00;;;;;26.72;42.77;100600.63;6225009;22;45280;-83
2021/09/13 12:55:23;;;;;;;;;8.00;8.00;;;;;26.73;41.92;100591.63;6200336;22;45345;-85
2021/09/13 12:57:49;;;;;;;;;7.50;6.75;;;;;26.82;42.27;100601.78;6201144;22;47796;-85
2021/09/13 13:00:15;;;;;;;;;10.50;8.50;;;;;26.83;42.23;100587.44;6225126;22;45411;-86
2021/09/13 13:02:41;;;;;;;;;8.50;7.25;;;;;26.81;42.22;100578.66;6200070;22;45349;-85
2021/09/13 13:05:30;;;;;;;;;8.75;7.75;;;;;26.92;42.23;100594.91;6225281;22;45341;-85
2021/09/13 13:08:02;;;;;;;;;7.50;7.50;;;;;26.86;41.98;100575.72;6232762;22;45548;-84
2021/09/13 13:10:27;;;;;;;;;8.75;8.75;;;;;26.93;42.52;100580.59;6226008;22;45381;-85
2021/09/13 13:12:55;;;;;;;;;8.75;8.75;;;;;26.91;42.39;100585.16;6226069;22;45343;-84
2021/09/13 13:15:21;;;;;;;;;7.00;6.75;;;;;26.86;42.55;100565.84;6195435;22;45415;-83